Time;durP1;ratioP1;P1;durP2;ratioP2;P2;SDS_P1;SDS_P2;PMS_P1;PMS_P2;Temp;Humidity;BMP_temperature;BMP_pressure;BME280_temperature;BME280_humidity;BME280_pressure;Samples;Min_cycle;Max_cycle;Signal;HPM_P1;HPM_P2
2022/09/11 00:00:45;;;;;;;56.03;31.73;;;;;;;12.74;100.00;101732.28;6128027;23;20042;-78
2022/09/11 00:03:10;;;;;;;50.42;33.42;;;;;;;12.71;100.00;101712.56;6127373;23;20041;-80
2022/09/11 00:05:40;;;;;;;51.42;34.20;;;;;;;12.83;100.00;101742.97;6127154;23;20053;-75
2022/09/11 00:08:07;;;;;;;47.40;30.30;;;;;;;12.73;100.00;101747.00;6127197;23;20010;-79
2022/09/11 00:10:36;;;;;;;44.05;28.85;;;;;;;12.64;100.00;101730.22;6127304;23;20012;-80
2022/09/11 00:13:03;;;;;;;45.60;28.63;;;;;;;12.56;100.00;101721.22;6127232;23;20013;-78
2022/09/11 00:15:28;;;;;;;43.22;28.67;;;;;;;12.58;100.00;101738.34;6127465;23;20016;-74
2022/09/11 00:17:55;;;;;;;45.35;28.10;;;;;;;12.44;100.00;101722.75;6127332;23;20072;-77
2022/09/11 00:20:20;;;;;;;40.50;27.90;;;;;;;12.49;100.00;101738.06;6127192;23;20380;-77
2022/09/11 00:22:47;;;;;;;47.65;29.05;;;;;;;12.50;100.00;101742.31;6127075;23;20005;-78
2022/09/11 00:25:13;;;;;;;48.00;28.55;;;;;;;12.43;100.00;101733.19;6127095;23;20009;-79
2022/09/11 00:27:38;;;;;;;40.92;26.85;;;;;;;12.38;100.00;101730.03;6127077;23;20036;-78
2022/09/11 00:30:04;;;;;;;36.92;25.13;;;;;;;12.38;100.00;101748.16;6127428;23;20006;-79
2022/09/11 00:32:32;;;;;;;38.33;25.98;;;;;;;12.32;100.00;101744.16;6127406;23;19998;-79
2022/09/11 00:34:58;;;;;;;39.20;25.90;;;;;;;12.19;100.00;101730.22;6127030;23;20332;-79
2022/09/11 00:37:23;;;;;;;33.88;24.25;;;;;;;12.24;100.00;101746.34;6127208;23;20002;-78
2022/09/11 00:39:49;;;;;;;38.95;26.55;;;;;;;12.23;100.00;101755.03;6127189;23;20305;-79
2022/09/11 00:42:14;;;;;;;46.33;29.48;;;;;;;12.26;100.00;101749.66;6127150;23;20012;-79
2022/09/11 00:44:40;;;;;;;54.42;29.52;;;;;;;12.28;100.00;101750.41;6127156;23;20031;-78
2022/09/11 00:47:08;;;;;;;46.83;28.73;;;;;;;12.20;100.00;101757.81;6127065;23;20006;-79
2022/09/11 00:49:40;;;;;;;40.20;26.42;;;;;;;12.05;100.00;101736.97;6126884;23;20116;-79
2022/09/11 00:52:22;;;;;;;41.97;27.50;;;;;;;12.14;100.00;101755.53;6127322;23;20053;-79
2022/09/11 00:55:13;;;;;;;44.10;27.60;;;;;;;12.09;100.00;101762.69;6127249;23;20332;-79
2022/09/11 00:57:44;;;;;;;43.13;28.58;;;;;;;12.05;100.00;101749.09;6127381;23;20368;-79
2022/09/11 01:00:12;;;;;;;53.13;31.90;;;;;;;12.06;100.00;101738.66;6100318;23;20034;-79
2022/09/11 01:02:41;;;;;;;61.28;34.38;;;;;;;12.26;100.00;101754.84;6126335;23;20033;-79
2022/09/11 01:05:08;;;;;;;60.88;35.40;;;;;;;12.31;100.00;101755.44;6126642;23;20009;-79
2022/09/11 01:07:35;;;;;;;69.30;38.25;;;;;;;12.34;100.00;101750.09;6100298;23;20017;-79
2022/09/11 01:10:02;;;;;;;64.80;35.75;;;;;;;12.26;100.00;101754.84;6126999;23;20416;-80
2022/09/11 01:12:40;;;;;;;58.30;34.78;;;;;;;12.32;100.00;101772.66;6126796;23;20476;-78
2022/09/11 01:15:32;;;;;;;61.22;34.38;;;;;;;12.06;100.00;101737.81;6127152;23;20037;-79
2022/09/11 01:18:09;;;;;;;57.60;33.10;;;;;;;12.25;100.00;101784.25;6127053;23;20420;-78
2022/09/11 01:20:49;;;;;;;59.03;36.45;;;;;;;12.26;100.00;101771.22;6126599;23;20011;-79
2022/09/11 01:23:27;;;;;;;58.53;33.90;;;;;;;12.23;100.00;101768.81;6126584;23;20006;-79
2022/09/11 01:26:10;;;;;;;66.32;35.95;;;;;;;12.21;100.00;101775.84;6126629;23;20012;-79
2022/09/11 01:28:49;;;;;;;60.00;35.42;;;;;;;12.01;100.00;101747.59;6126797;23;20005;-79
2022/09/11 01:31:20;;;;;;;66.95;35.80;;;;;;;11.91;100.00;101738.66;6126553;23;20045;-79
2022/09/11 01:34:04;;;;;;;67.25;37.50;;;;;;;12.14;100.00;101777.06;6100712;23;20013;-80
2022/09/11 01:36:44;;;;;;;60.42;35.63;;;;;;;12.08;100.00;101767.03;6126838;23;20376;-79
2022/09/11 01:39:11;;;;;;;67.18;37.50;;;;;;;12.18;100.00;101788.94;6101962;23;20060;-79
2022/09/11 01:41:49;;;;;;;62.25;36.53;;;;;;;12.15;100.00;101786.50;6126887;23;20002;-79
2022/09/11 01:44:21;;;;;;;63.97;35.25;;;;;;;12.11;100.00;101784.19;6126661;23;20013;-80
2022/09/11 01:46:50;;;;;;;65.35;35.95;;;;;;;12.09;100.00;101792.00;6126433;23;20420;-79
2022/09/11 01:49:16;;;;;;;62.20;35.83;;;;;;;12.07;100.00;101789.50;6126218;23;20006;-76
2022/09/11 01:51:41;;;;;;;57.72;34.03;;;;;;;12.02;100.00;101788.09;6126474;23;20094;-73
2022/09/11 01:54:11;;;;;;;59.67;34.92;;;;;;;12.01;100.00;101789.03;6126295;23;20006;-79
2022/09/11 01:56:50;;;;;;;54.93;32.37;;;;;;;11.85;100.00;101775.22;6126592;23;20002;-74
2022/09/11 01:59:19;;;;;;;64.10;34.47;;;;;;;11.99;100.00;101783.06;6126736;23;20361;-77
2022/09/11 02:01:50;;;;;;;62.63;36.28;;;;;;;11.95;100.00;101789.34;6100215;23;20477;-77
2022/09/11 02:04:31;;;;;;;51.05;30.42;;;;;;;11.80;100.00;101770.31;6126722;23;20077;-77
2022/09/11 02:07:06;;;;;;;;;;;;;;;11.91;100.00;101787.84;6126806;23;20009;-78
2022/09/11 02:09:45;;;;;;;46.20;30.63;;;;;;;11.74;100.00;101775.75;6126427;23;19913;-77
2022/09/11 02:12:14;;;;;;;48.20;28.50;;;;;;;11.76;100.00;101779.09;6126519;23;20010;-77
2022/09/11 02:14:47;;;;;;;48.58;27.30;;;;;;;11.71;100.00;101778.53;6126360;23;20010;-76
2022/09/11 02:17:39;;;;;;;42.35;25.52;;;;;;;11.65;100.00;101786.59;6126343;23;20013;-74
2022/09/11 02:20:07;;;;;;;36.13;22.67;;;;;;;11.48;100.00;101767.59;6126217;23;20053;-78
2022/09/11 02:22:32;;;;;;;34.60;21.95;;;;;;;11.49;100.00;101787.38;6126129;23;20409;-77
2022/09/11 02:24:57;;;;;;;30.77;21.10;;;;;;;11.33;100.00;101776.16;6126512;23;20115;-75
2022/09/11 02:27:26;;;;;;;32.72;22.33;;;;;;;11.40;100.00;101794.75;6126249;23;20034;-75
2022/09/11 02:29:53;;;;;;;38.17;24.15;;;;;;;11.37;100.00;101795.75;6126466;23;20006;-74
2022/09/11 02:32:21;;;;;;;38.33;24.15;;;;;;;11.37;100.00;101803.53;6100455;23;20037;-79
2022/09/11 02:34:47;;;;;;;47.75;29.15;;;;;;;11.28;100.00;101790.22;6126255;23;20001;-78
2022/09/11 02:37:13;;;;;;;56.30;32.33;;;;;;;11.37;100.00;101808.69;6126084;23;20006;-79
2022/09/11 02:39:59;;;;;;;60.63;32.88;;;;;;;11.38;100.00;101805.19;6126531;23;20021;-73
2022/09/11 02:42:24;;;;;;;55.28;32.28;;;;;;;11.39;100.00;101804.28;6126119;23;20456;-74
2022/09/11 02:45:31;;;;;;;50.35;29.85;;;;;;;11.23;100.00;101777.53;6126260;23;20006;-73
2022/09/11 02:48:21;;;;;;;58.83;32.28;;;;;;;11.38;100.00;101804.34;6126404;23;20013;-77
2022/09/11 02:50:57;;;;;;;55.85;32.50;;;;;;;11.28;100.00;101793.63;6125977;23;20433;-75
2022/09/11 02:53:28;;;;;;;56.70;31.88;;;;;;;11.31;100.00;101798.69;6126510;23;20336;-73
2022/09/11 02:56:34;;;;;;;48.75;30.60;;;;;;;11.26;100.00;101810.16;6126088;23;20081;-72
2022/09/11 02:59:05;;;;;;;47.55;28.60;;;;;;;11.19;100.00;101802.69;6126188;23;20006;-73
2022/09/11 03:01:45;;;;;;;46.45;28.88;;;;;;;11.17;100.00;101801.94;6126197;23;20009;-74
2022/09/11 03:04:10;;;;;;;45.10;28.35;;;;;;;11.15;100.00;101811.53;6126175;23;20014;-72
2022/09/11 03:06:36;;;;;;;41.97;25.75;;;;;;;11.13;100.00;101815.09;6126316;23;20352;-71
2022/09/11 03:09:01;;;;;;;51.10;30.15;;;;;;;11.13;100.00;101818.53;6125609;23;20069;-72
2022/09/11 03:11:27;;;;;;;41.13;24.42;;;;;;;11.02;100.00;101807.03;6126045;23;20013;-72
2022/09/11 03:13:52;;;;;;;46.08;28.90;;;;;;;11.04;100.00;101813.81;6126448;23;20011;-74
2022/09/11 03:16:17;;;;;;;45.80;28.38;;;;;;;11.07;100.00;101823.97;6126459;23;20006;-74
2022/09/11 03:18:43;;;;;;;45.67;28.42;;;;;;;11.02;100.00;101820.81;6126116;23;20013;-73
2022/09/11 03:21:10;;;;;;;44.60;27.38;;;;;;;11.03;100.00;101821.63;6125903;23;20006;-75
2022/09/11 03:23:35;;;;;;;41.05;25.55;;;;;;;10.81;100.00;101793.41;6125762;23;20010;-74
2022/09/11 03:26:00;;;;;;;46.30;28.73;;;;;;;10.87;100.00;101808.63;6126249;23;20017;-73
2022/09/11 03:28:26;;;;;;;55.13;31.27;;;;;;;10.98;100.00;101815.84;6128206;23;20006;-74
2022/09/11 03:30:51;;;;;;;56.15;33.08;;;;;;;10.88;100.00;101800.78;6127895;23;20078;-74
2022/09/11 03:33:17;;;;;;;58.15;34.15;;;;;;;10.99;100.00;101823.53;6127885;23;20084;-73
2022/09/11 03:35:43;;;;;;;62.78;35.25;;;;;;;10.96;100.00;101809.91;6127786;23;20001;-79
2022/09/11 03:38:09;;;;;;;67.85;37.03;;;;;;;10.97;100.00;101804.66;6127606;23;20089;-78
2022/09/11 03:40:34;;;;;;;74.93;39.22;;;;;;;11.06;100.00;101801.63;6127736;23;20380;-72
2022/09/11 03:42:59;;;;;;;70.95;37.75;;;;;;;11.20;100.00;101817.28;6127550;23;20006;-75
2022/09/11 03:45:25;;;;;;;97.95;42.00;;;;;;;11.29;100.00;101825.50;6128047;23;20006;-73
2022/09/11 03:47:50;;;;;;;122.05;43.25;;;;;;;11.33;100.00;101819.28;6127724;23;20009;-76
2022/09/11 03:50:15;;;;;;;123.55;44.38;;;;;;;11.29;100.00;101810.81;6127873;23;20009;-77
2022/09/11 03:52:42;;;;;;;115.25;44.22;;;;;;;11.43;100.00;101829.09;6127448;23;20492;-75
2022/09/11 03:55:08;;;;;;;101.03;41.08;;;;;;;11.35;100.00;101815.69;6127469;23;20001;-79
2022/09/11 03:57:34;;;;;;;107.68;40.30;;;;;;;11.41;100.00;101819.75;6127904;23;20036;-78
2022/09/11 04:00:00;;;;;;;73.68;36.83;;;;;;;11.36;100.00;101824.28;6127915;23;20073;-79
2022/09/11 04:02:26;;;;;;;81.07;37.25;;;;;;;11.23;100.00;101810.31;6127734;23;20320;-79
2022/09/11 04:04:51;;;;;;;68.32;35.90;;;;;;;11.32;100.00;101820.19;6127504;23;20006;-73
2022/09/11 04:07:16;;;;;;;83.07;34.53;;;;;;;11.30;100.00;101832.34;6101081;23;19997;-78
2022/09/11 04:09:41;;;;;;;114.70;35.00;;;;;;;11.18;100.00;101819.13;6127158;23;20013;-77
2022/09/11 04:12:07;;;;;;;76.97;33.42;;;;;;;11.24;100.00;101833.50;6127318;23;20116;-77
2022/09/11 04:14:32;;;;;;;83.20;34.22;;;;;;;11.08;100.00;101811.91;6127429;23;20006;-79
2022/09/11 04:16:58;;;;;;;86.75;33.25;;;;;;;11.18;100.00;101824.28;6127363;23;20010;-75
2022/09/11 04:19:23;;;;;;;113.55;33.90;;;;;;;11.12;100.00;101829.78;6127647;23;20005;-72
2022/09/11 04:21:49;;;;;;;88.43;30.75;;;;;;;11.10;100.00;101831.56;6126913;23;20076;-78
2022/09/11 04:24:14;;;;;;;85.43;32.78;;;;;;;11.05;100.00;101828.41;6127255;23;20015;-78
2022/09/11 04:26:39;;;;;;;84.90;33.28;;;;;;;11.03;100.00;101831.97;6128112;23;20069;-78
2022/09/11 04:29:05;;;;;;;80.68;31.38;;;;;;;10.95;100.00;101819.41;6127497;23;20002;-78
2022/09/11 04:31:30;;;;;;;73.88;31.73;;;;;;;10.98;100.00;101828.75;6127331;23;20421;-78
2022/09/11 04:33:56;;;;;;;52.22;29.20;;;;;;;10.94;100.00;101828.09;6127135;23;20081;-79
2022/09/11 04:36:23;;;;;;;57.30;31.02;;;;;;;10.82;100.00;101811.44;6127362;23;20013;-78
2022/09/11 04:38:54;;;;;;;63.58;32.92;;;;;;;10.75;100.00;101802.28;6126529;23;20009;-78
2022/09/11 04:41:20;;;;;;;58.55;32.60;;;;;;;10.78;100.00;101806.47;6126941;23;20009;-79
2022/09/11 04:43:46;;;;;;;70.47;33.55;;;;;;;10.93;100.00;101830.75;6127125;23;20010;-78
2022/09/11 04:46:13;;;;;;;65.47;32.63;;;;;;;10.84;100.00;101824.28;6101322;23;20092;-79
2022/09/11 04:48:58;;;;;;;67.90;32.80;;;;;;;10.87;100.00;101827.53;6127115;23;20451;-78
2022/09/11 04:51:29;;;;;;;75.43;32.65;;;;;;;10.90;100.00;101836.88;6127710;23;20033;-78
2022/09/11 04:53:58;;;;;;;70.30;36.05;;;;;;;10.87;100.00;101837.88;6126937;23;20061;-78
2022/09/11 04:56:29;;;;;;;82.15;35.70;;;;;;;10.82;100.00;101819.19;6127023;23;20013;-79
2022/09/11 04:58:57;;;;;;;87.78;37.13;;;;;;;10.95;100.00;101834.94;6127255;23;20006;-76
2022/09/11 05:01:24;;;;;;;76.53;36.10;;;;;;;10.90;100.00;101831.72;6126867;23;20013;-78
2022/09/11 05:03:49;;;;;;;86.88;35.80;;;;;;;10.97;100.00;101834.84;6127030;23;20013;-76
2022/09/11 05:06:15;;;;;;;83.65;36.03;;;;;;;10.90;100.00;101822.22;6100413;23;20006;-79
2022/09/11 05:08:43;;;;;;;85.25;37.20;;;;;;;10.98;100.00;101834.78;6126430;23;20049;-79
2022/09/11 05:11:12;;;;;;;122.72;37.50;;;;;;;10.96;100.00;101828.00;6126968;23;20013;-79
2022/09/11 05:13:38;;;;;;;98.00;37.97;;;;;;;11.00;100.00;101826.94;6127042;23;20016;-79
2022/09/11 05:16:05;;;;;;;101.80;38.60;;;;;;;11.16;100.00;101845.97;6126617;23;20006;-80
2022/09/11 05:18:31;;;;;;;99.53;38.97;;;;;;;11.19;100.00;101854.41;6126968;23;20006;-78
2022/09/11 05:21:04;;;;;;;91.28;38.50;;;;;;;11.23;100.00;101857.69;6126810;23;20005;-80
2022/09/11 05:23:30;;;;;;;130.40;39.47;;;;;;;11.27;100.00;101848.84;6126186;23;20006;-79
2022/09/11 05:26:01;;;;;;;73.75;35.50;;;;;;;11.23;100.00;101854.25;6126673;23;20025;-79
2022/09/11 05:28:28;;;;;;;91.93;37.28;;;;;;;11.20;100.00;101850.91;6126758;23;20009;-79
2022/09/11 05:30:55;;;;;;;79.25;37.40;;;;;;;11.32;100.00;101872.75;6126585;23;20013;-79
2022/09/11 05:33:25;;;;;;;69.22;35.95;;;;;;;11.35;100.00;101875.19;6126930;23;20010;-79
2022/09/11 05:35:53;;;;;;;69.13;34.42;;;;;;;11.35;100.00;101879.50;6126572;23;20006;-78
2022/09/11 05:38:19;;;;;;;72.15;35.97;;;;;;;11.39;100.00;101886.19;6126417;23;20010;-77
2022/09/11 05:40:48;;;;;;;86.00;36.70;;;;;;;11.32;100.00;101872.75;6126703;23;20052;-80
2022/09/11 05:43:14;;;;;;;67.10;34.55;;;;;;;11.49;100.00;101892.59;6126336;23;20088;-81
2022/09/11 05:45:44;;;;;;;83.38;37.25;;;;;;;11.52;100.00;101897.63;6126550;23;20080;-74
2022/09/11 05:48:10;;;;;;;74.47;35.83;;;;;;;11.62;100.00;101900.59;6126492;23;20010;-79
2022/09/11 05:50:36;;;;;;;83.07;36.17;;;;;;;11.57;100.00;101887.03;6126629;23;20029;-79
2022/09/11 05:53:02;;;;;;;65.90;35.10;;;;;;;11.54;100.00;101872.50;6126340;23;20462;-79
2022/09/11 05:55:27;;;;;;;83.13;36.38;;;;;;;11.78;100.00;101904.06;6126506;23;20009;-78
2022/09/11 05:57:53;;;;;;;73.00;35.28;;;;;;;11.85;100.00;101912.38;6126289;23;20017;-79
2022/09/11 06:00:19;;;;;;;66.25;34.97;;;;;;;11.92;100.00;101912.00;6126698;23;20332;-78
2022/09/11 06:02:45;;;;;;;63.47;33.75;;;;;;;11.89;100.00;101899.19;6126391;23;20032;-78
2022/09/11 06:05:11;;;;;;;74.90;35.53;;;;;;;11.65;100.00;101852.09;6100538;23;20089;-78
2022/09/11 06:07:36;;;;;;;66.22;34.75;;;;;;;12.13;100.00;101924.75;6126093;23;20012;-79
2022/09/11 06:10:02;;;;;;;58.10;33.05;;;;;;;12.14;100.00;101919.50;6126235;23;20002;-80
2022/09/11 06:12:27;;;;;;;52.75;31.85;;;;;;;12.28;100.00;101929.94;6126334;23;20037;-78
2022/09/11 06:14:53;;;;;;;53.10;31.98;;;;;;;12.16;100.00;101901.28;6126695;23;20010;-79
2022/09/11 06:17:19;;;;;;;67.82;31.45;;;;;;;12.43;100.00;101937.84;6126455;23;20439;-78
2022/09/11 06:19:45;;;;;;;53.60;31.20;;;;;;;12.52;100.00;101937.38;6126359;23;20002;-78
2022/09/11 06:22:10;;;;;;;69.18;30.75;;;;;;;12.44;100.00;101913.63;6126060;23;20016;-80
2022/09/11 06:24:35;;;;;;;54.78;30.33;;;;;;;12.63;100.00;101914.31;6126276;23;20006;-82
2022/09/11 06:27:01;;;;;;;56.38;29.67;;;;;;;12.82;100.00;101943.47;6126054;23;20013;-77
2022/09/11 06:29:26;;;;;;;42.95;28.30;;;;;;;12.86;100.00;101934.59;6126351;23;20006;-80
2022/09/11 06:31:51;;;;;;;62.25;28.30;;;;;;;12.99;100.00;101944.31;6124847;23;20009;-78
2022/09/11 06:34:18;;;;;;;38.88;28.27;;;;;;;12.97;100.00;101931.41;6126365;23;20032;-79
2022/09/11 06:36:44;;;;;;;58.63;26.92;;;;;;;13.17;100.00;101951.06;6126358;23;20002;-73
2022/09/11 06:39:09;;;;;;;48.22;27.95;;;;;;;13.29;100.00;101953.03;6125753;23;20010;-77
2022/09/11 06:41:35;;;;;;;61.00;27.63;;;;;;;13.40;100.00;101947.22;6126027;23;20041;-75
2022/09/11 06:44:00;;;;;;;73.45;25.88;;;;;;;13.40;100.00;101936.84;6126309;23;20002;-78
2022/09/11 06:46:26;;;;;;;75.25;26.13;;;;;;;13.59;100.00;101954.78;6099662;23;20010;-78
2022/09/11 06:48:51;;;;;;;115.32;26.80;;;;;;;13.59;100.00;101947.84;6126074;23;20006;-79
2022/09/11 06:51:19;;;;;;;78.60;24.95;;;;;;;13.70;100.00;101961.03;6127538;23;20018;-76
2022/09/11 06:53:46;;;;;;;63.05;24.00;;;;;;;13.74;100.00;101954.72;6127706;23;20026;-78
2022/09/11 06:56:16;;;;;;;87.25;26.48;;;;;;;13.90;100.00;101967.66;6099343;23;20508;-81
2022/09/11 06:58:42;;;;;;;72.75;23.60;;;;;;;14.00;100.00;101971.38;6126139;23;20002;-80
2022/09/11 07:01:18;;;;;;;62.17;23.65;;;;;;;14.13;100.00;101955.88;6126569;23;20006;-77
2022/09/11 07:03:45;;;;;;;62.65;24.38;;;;;;;14.02;100.00;101937.50;6128215;23;20017;-78
2022/09/11 07:06:12;;;;;;;59.15;24.05;;;;;;;14.21;100.00;101951.06;6128060;23;20053;-82
2022/09/11 07:08:38;;;;;;;51.70;23.92;;;;;;;14.35;100.00;101961.47;6127795;23;20033;-81
2022/09/11 07:11:04;;;;;;;62.60;24.42;;;;;;;14.34;100.00;101959.78;6101912;23;20009;-80
2022/09/11 07:13:31;;;;;;;56.97;23.58;;;;;;;14.52;100.00;101965.66;6102124;23;20002;-77
2022/09/11 07:16:06;;;;;;;56.85;22.50;;;;;;;14.70;100.00;101966.28;6128058;23;20104;-76
2022/09/11 07:18:36;;;;;;;67.80;23.42;;;;;;;14.76;100.00;101958.13;6127849;23;20053;-72
2022/09/11 07:21:12;;;;;;;50.40;21.42;;;;;;;14.77;100.00;101951.16;6128140;23;20010;-74
2022/09/11 07:23:38;;;;;;;56.85;20.85;;;;;;;14.90;100.00;101949.44;6127740;23;20006;-75
2022/09/11 07:26:06;;;;;;;45.45;21.85;;;;;;;14.85;100.00;101949.75;6127995;23;20005;-79
2022/09/11 07:28:32;;;;;;;39.53;22.65;;;;;;;15.10;100.00;101954.22;6127765;23;20030;-75
2022/09/11 07:31:15;;;;;;;43.83;20.92;;;;;;;15.20;100.00;101955.28;6128038;23;20025;-79
2022/09/11 07:33:46;;;;;;;57.95;22.27;;;;;;;15.25;100.00;101955.00;6127609;23;20013;-75
2022/09/11 07:36:15;;;;;;;38.95;22.40;;;;;;;15.41;100.00;101958.25;6127832;23;20491;-75
2022/09/11 07:38:42;;;;;;;45.13;21.52;;;;;;;15.45;100.00;101948.50;6127768;23;20002;-75
2022/09/11 07:41:09;;;;;;;41.00;22.17;;;;;;;15.61;100.00;101956.97;6127546;23;20325;-75
2022/09/11 07:43:38;;;;;;;40.28;21.63;;;;;;;15.63;100.00;101949.94;6127636;23;20010;-84
2022/09/11 07:46:04;;;;;;;36.65;22.50;;;;;;;15.75;100.00;101954.31;6127753;23;20081;-82
2022/09/11 07:48:30;;;;;;;39.42;20.67;;;;;;;15.90;99.79;101967.22;6127973;23;20040;-76
2022/09/11 07:51:02;;;;;;;32.20;21.50;;;;;;;16.03;99.49;101965.50;6127515;23;20001;-75
2022/09/11 07:53:33;;;;;;;34.60;21.90;;;;;;;15.95;98.48;101957.34;6127939;23;20057;-77
2022/09/11 07:56:02;;;;;;;44.15;21.45;;;;;;;16.14;98.54;101972.56;6127711;23;20065;-74
2022/09/11 07:58:32;;;;;;;38.38;21.38;;;;;;;16.01;97.67;101944.72;6127932;23;20356;-75
2022/09/11 08:00:58;;;;;;;42.28;22.88;;;;;;;16.24;97.01;101973.59;6127481;23;20033;-74
2022/09/11 08:03:23;;;;;;;30.38;22.60;;;;;;;16.27;97.10;101960.34;6101003;23;20037;-75
2022/09/11 08:05:48;;;;;;;48.10;24.27;;;;;;;16.39;96.53;101972.53;6100473;23;20340;-75
2022/09/11 08:08:14;;;;;;;37.25;24.33;;;;;;;16.51;96.93;101976.88;6127545;23;20014;-81
2022/09/11 08:10:40;;;;;;;35.33;23.08;;;;;;;16.55;96.36;101974.94;6127332;23;20432;-77
2022/09/11 08:13:05;;;;;;;33.38;23.15;;;;;;;16.66;94.71;101982.81;6127267;23;20101;-74
2022/09/11 08:15:30;;;;;;;37.83;23.15;;;;;;;16.75;94.40;101987.44;6127119;23;20409;-72
2022/09/11 08:17:56;;;;;;;55.03;24.73;;;;;;;16.70;95.08;101984.28;6127232;23;20085;-82
2022/09/11 08:20:21;;;;;;;31.83;24.40;;;;;;;16.97;94.99;102001.56;6128015;23;20049;-77
2022/09/11 08:22:46;;;;;;;35.75;25.58;;;;;;;17.08;95.45;101993.78;6127175;23;20491;-73
2022/09/11 08:25:12;;;;;;;37.55;26.42;;;;;;;17.19;95.93;101999.91;6127570;23;20006;-80
2022/09/11 08:27:38;;;;;;;36.28;25.95;;;;;;;17.20;94.76;101998.13;6127145;23;20009;-79
2022/09/11 08:30:03;;;;;;;35.67;25.67;;;;;;;17.18;94.76;101987.78;6127663;23;20006;-81
2022/09/11 08:32:29;;;;;;;37.85;27.10;;;;;;;17.33;94.50;101998.09;6127306;23;20396;-74
2022/09/11 08:34:54;;;;;;;37.72;27.35;;;;;;;17.40;92.93;101996.66;6127216;23;20002;-78
2022/09/11 08:37:19;;;;;;;39.15;27.45;;;;;;;17.52;93.06;102008.84;6127180;23;20010;-74
2022/09/11 08:39:45;;;;;;;38.13;28.15;;;;;;;17.64;93.32;102010.56;6127255;23;20021;-77
2022/09/11 08:42:15;;;;;;;39.72;29.15;;;;;;;17.75;93.12;102015.84;6126991;23;20533;-76
2022/09/11 08:44:48;;;;;;;41.50;28.80;;;;;;;17.86;93.38;102016.81;6101142;23;20002;-75
2022/09/11 08:47:18;;;;;;;37.83;27.08;;;;;;;17.93;92.47;101995.34;6126822;23;20048;-75
2022/09/11 08:49:51;;;;;;;41.03;29.77;;;;;;;18.27;92.16;102008.44;6127062;23;20336;-73
2022/09/11 08:52:16;;;;;;;37.20;27.73;;;;;;;18.24;88.97;101993.00;6127054;23;20081;-74
2022/09/11 08:54:42;;;;;;;38.10;28.05;;;;;;;18.31;88.61;102013.34;6127388;23;20030;-73
2022/09/11 08:57:23;;;;;;;36.13;27.83;;;;;;;18.13;89.99;102001.69;6126758;23;20010;-73
2022/09/11 09:00:01;;;;;;;37.47;27.70;;;;;;;17.84;89.78;102016.09;6126697;23;20061;-74
2022/09/11 09:03:01;;;;;;;38.90;28.83;;;;;;;17.74;90.67;102018.56;6126967;23;20006;-74
2022/09/11 09:05:26;;;;;;;38.55;27.92;;;;;;;17.65;91.08;102011.38;6127038;23;20053;-73
2022/09/11 09:08:19;;;;;;;42.15;29.20;;;;;;;17.55;93.02;101999.94;6100814;23;20340;-74
2022/09/11 09:11:07;;;;;;;40.45;29.13;;;;;;;17.53;93.45;102014.91;6126942;23;20049;-84
2022/09/11 09:14:04;;;;;;;41.22;30.17;;;;;;;17.31;93.54;102010.41;6126803;23;20459;-85
2022/09/11 09:16:42;;;;;;;41.33;30.75;;;;;;;17.34;94.83;102018.84;6009128;23;20007;-84
2022/09/11 09:19:38;;;;;;;40.50;30.33;;;;;;;17.21;95.04;102012.88;6009349;23;20015;-83
2022/09/11 09:22:12;;;;;;;24.80;17.38;;;;;;;17.51;99.12;102019.41;5953209;24;20347;-80
2022/09/11 09:24:47;;;;;;;31.33;22.05;;;;;;;17.71;98.10;102018.81;5929910;24;20008;-80
2022/09/11 09:27:27;;;;;;;41.30;26.80;;;;;;;17.83;95.92;102023.13;5953347;24;20432;-79
2022/09/11 09:29:54;;;;;;;31.42;22.63;;;;;;;18.17;94.92;102021.38;5954513;24;20348;-80
2022/09/11 09:32:31;;;;;;;31.88;23.45;;;;;;;18.39;93.04;102019.78;5953876;23;20008;-78
2022/09/11 09:35:01;;;;;;;26.08;19.08;;;;;;;18.76;91.31;102022.97;5953396;24;20008;-80
2022/09/11 09:37:27;;;;;;;33.53;23.15;;;;;;;18.84;87.54;102028.44;5953295;24;20483;-80
2022/09/11 09:39:53;;;;;;;29.23;21.23;;;;;;;18.96;87.02;102029.25;5953179;24;20065;-80
2022/09/11 09:42:43;;;;;;;31.02;22.70;;;;;;;19.09;86.44;102032.59;5951375;24;20455;-81
2022/09/11 09:45:30;;;;;;;29.73;22.85;;;;;;;19.27;85.75;102010.16;5929889;24;20008;-78
2022/09/11 09:47:55;;;;;;;31.20;21.98;;;;;;;19.69;82.03;102026.81;5929704;24;20444;-79
2022/09/11 09:50:29;;;;;;;33.65;25.30;;;;;;;19.95;82.45;102026.41;5952846;24;20044;-75
2022/09/11 09:53:16;;;;;;;27.60;22.25;;;;;;;20.31;81.12;102025.94;5981118;23;20011;-80
2022/09/11 09:55:43;;;;;;;26.00;19.60;;;;;;;20.40;77.25;102028.75;6065659;23;20171;-75
2022/09/11 09:58:08;;;;;;;19.90;16.30;;;;;;;20.50;77.72;102017.34;6074726;23;20046;-75
2022/09/11 10:00:36;;;;;;;23.55;18.83;;;;;;;20.37;75.78;102021.16;6126262;23;20006;-78
2022/09/11 10:03:18;;;;;;;25.80;19.50;;;;;;;20.22;78.36;102013.59;6100529;23;20036;-80
2022/09/11 10:05:44;;;;;;;21.63;17.85;;;;;;;20.13;77.28;102021.41;6126745;23;20355;-80
2022/09/11 10:08:32;;;;;;;27.67;21.35;;;;;;;19.99;79.20;102012.09;6126479;23;20041;-79
2022/09/11 10:10:59;;;;;;;27.70;20.13;;;;;;;20.12;79.69;102017.97;6126265;23;20341;-77
2022/09/11 10:13:30;;;;;;;30.67;22.25;;;;;;;19.92;80.14;102010.94;6126179;23;20002;-82
2022/09/11 10:16:00;;;;;;;;;;;;;;;19.99;82.38;102022.59;6100582;23;20006;-79
2022/09/11 10:18:31;;;;;;;26.70;21.92;;;;;;;19.71;78.93;102032.75;6126440;23;19912;-76
2022/09/11 10:21:11;;;;;;;28.33;21.33;;;;;;;19.78;81.92;102030.47;6126648;23;20002;-80
2022/09/11 10:23:56;;;;;;;25.98;20.67;;;;;;;19.86;80.66;102030.66;6126232;23;20010;-80
2022/09/11 10:26:44;;;;;;;22.90;18.73;;;;;;;19.91;80.25;102011.91;6126330;23;20002;-75
2022/09/11 10:29:23;;;;;;;21.90;16.13;;;;;;;19.98;79.45;102026.19;6126447;23;20013;-74
2022/09/11 10:31:51;;;;;;;23.48;18.73;;;;;;;19.76;76.72;102022.72;6126357;23;20133;-75
2022/09/11 10:34:19;;;;;;;21.33;15.93;;;;;;;19.80;76.88;102025.91;6126382;23;20006;-75
2022/09/11 10:37:11;;;;;;;22.73;16.35;;;;;;;19.89;77.58;102027.78;6102244;23;20012;-75
2022/09/11 10:39:38;;;;;;;18.38;14.68;;;;;;;19.94;75.53;102024.75;6128500;23;20331;-77
2022/09/11 10:42:15;;;;;;;20.13;15.07;;;;;;;19.77;75.06;101986.88;6128243;23;20088;-78
2022/09/11 10:44:43;;;;;;;20.05;15.82;;;;;;;19.85;74.95;101986.19;6101537;23;20013;-79
2022/09/11 10:47:11;;;;;;;21.10;16.27;;;;;;;20.11;76.39;102021.56;6128618;23;20006;-76
2022/09/11 10:49:36;;;;;;;22.83;17.08;;;;;;;20.27;77.94;102011.44;6128672;23;20013;-79
2022/09/11 10:52:07;;;;;;;16.08;13.88;;;;;;;20.45;75.17;102016.94;6128031;23;20006;-79
2022/09/11 10:54:51;;;;;;;14.38;12.60;;;;;;;20.75;75.46;102021.31;6128589;23;20086;-79
2022/09/11 10:57:23;;;;;;;22.17;16.70;;;;;;;21.00;75.88;102027.03;6102133;23;20006;-76
2022/09/11 11:00:13;;;;;;;21.88;15.50;;;;;;;21.18;73.96;102026.25;6128182;23;20034;-76
2022/09/11 11:02:53;;;;;;;17.58;14.00;;;;;;;21.26;71.49;102015.09;6128022;23;20036;-81
2022/09/11 11:05:39;;;;;;;17.70;14.00;;;;;;;21.30;69.12;102026.13;6102116;23;20002;-79
2022/09/11 11:08:07;;;;;;;19.00;15.18;;;;;;;21.12;67.44;102021.50;6127618;23;20021;-81
2022/09/11 11:11:17;;;;;;;16.60;12.35;;;;;;;21.11;68.36;102019.84;6128077;23;20010;-81
2022/09/11 11:13:51;;;;;;;15.15;11.02;;;;;;;21.09;69.80;102013.91;5982079;24;20019;-81
2022/09/11 11:16:23;;;;;;;14.30;10.32;;;;;;;21.03;69.09;102016.25;5981916;24;20047;-83
2022/09/11 11:19:15;;;;;;;12.73;10.50;;;;;;;20.73;70.65;101993.53;5982309;24;20016;-78